Time;durP1;ratioP1;P1;durP2;ratioP2;P2;SDS_P1;SDS_P2;PMS_P1;PMS_P2;Temp;Humidity;BMP_temperature;BMP_pressure;BME280_temperature;BME280_humidity;BME280_pressure;Samples;Min_cycle;Max_cycle;Signal;HPM_P1;HPM_P2
2024/01/18 00:00:09;;;;;;;2.88;0.50;;;;;;;;;;5047958;28;20601;-77
2024/01/18 00:02:35;;;;;;;4.43;0.40;;;;;;;;;;5049542;28;20105;-76
2024/01/18 00:05:01;;;;;;;1.85;0.40;;;;;;;;;;5049689;28;20052;-76
2024/01/18 00:07:27;;;;;;;2.67;0.60;;;;;;;;;;5049352;28;20022;-76
2024/01/18 00:09:53;;;;;;;4.22;0.90;;;;;;;;;;5047697;28;20028;-76
2024/01/18 00:12:19;;;;;;;3.75;0.65;;;;;;;;;;5048211;28;20524;-76
2024/01/18 00:14:45;;;;;;;4.65;0.70;;;;;;;;;;5047435;28;20051;-76
2024/01/18 00:29:00;;;;;;;1.83;0.73;;;;;;;;;;5043505;22;20835;-76
2024/01/18 00:31:26;;;;;;;2.95;0.70;;;;;;;;;;5049145;28;20702;-76
2024/01/18 00:33:57;;;;;;;7.07;0.68;;;;;;;;;;5043264;28;20018;-76
2024/01/18 00:36:23;;;;;;;2.65;1.00;;;;;;;;;;5049777;28;20552;-76
2024/01/18 00:38:49;;;;;;;2.80;0.60;;;;;;;;;;5046879;28;20112;-76
2024/01/18 00:41:15;;;;;;;4.80;0.60;;;;;;;;;;5045716;28;20021;-76
2024/01/18 00:43:41;;;;;;;6.10;0.77;;;;;;;;;;5048644;28;20040;-76
2024/01/18 00:46:07;;;;;;;3.65;0.80;;;;;;;;;;5048526;28;20035;-76
2024/01/18 00:48:33;;;;;;;3.70;0.88;;;;;;;;;;5049683;28;20020;-76
2024/01/18 00:51:00;;;;;;;3.85;0.90;;;;;;;;;;5029765;28;20363;-76
2024/01/18 00:53:26;;;;;;;5.05;0.90;;;;;;;;;;5028325;28;20013;-76
2024/01/18 00:55:52;;;;;;;4.38;0.80;;;;;;;;;;5046017;28;20049;-76
2024/01/18 00:58:18;;;;;;;3.70;0.70;;;;;;;;;;5049506;28;20040;-76
2024/01/18 01:00:44;;;;;;;4.00;0.68;;;;;;;;;;5032826;28;20490;-76
2024/01/18 01:03:10;;;;;;;3.30;0.60;;;;;;;;;;5030004;28;20140;-76
2024/01/18 01:05:36;;;;;;;3.78;0.70;;;;;;;;;;5031422;28;20060;-76
2024/01/18 01:08:02;;;;;;;5.65;0.80;;;;;;;;;;5033664;28;20030;-76
2024/01/18 01:10:28;;;;;;;4.93;0.75;;;;;;;;;;5041366;28;20025;-76
2024/01/18 01:12:54;;;;;;;3.55;0.50;;;;;;;;;;5047964;28;20457;-76
2024/01/18 01:15:20;;;;;;;4.63;0.85;;;;;;;;;;5033364;28;20010;-76
2024/01/18 01:17:46;;;;;;;4.22;0.60;;;;;;;;;;5032495;28;20017;-76
2024/01/18 01:20:12;;;;;;;4.85;0.85;;;;;;;;;;5032140;28;20100;-76
2024/01/18 01:22:38;;;;;;;5.43;0.60;;;;;;;;;;5044977;28;20469;-76
2024/01/18 01:25:04;;;;;;;5.68;0.85;;;;;;;;;;5051974;28;20021;-75
2024/01/18 01:27:30;;;;;;;4.07;0.82;;;;;;;;;;5052147;28;20045;-76
2024/01/18 01:29:56;;;;;;;4.90;0.77;;;;;;;;;;5047293;28;20398;-75
2024/01/18 01:32:22;;;;;;;4.22;0.73;;;;;;;;;;5031623;28;20018;-76
2024/01/18 01:34:48;;;;;;;8.15;1.13;;;;;;;;;;5037705;28;20013;-76
2024/01/18 01:37:14;;;;;;;7.03;0.80;;;;;;;;;;5053556;28;20013;-76
2024/01/18 01:39:40;;;;;;;5.13;0.82;;;;;;;;;;5049056;28;20064;-76
2024/01/18 01:42:06;;;;;;;2.67;0.60;;;;;;;;;;5032261;28;20048;-76
2024/01/18 01:44:32;;;;;;;3.08;0.60;;;;;;;;;;5034713;28;20017;-76
2024/01/18 01:46:58;;;;;;;3.75;0.70;;;;;;;;;;5053065;28;20039;-76
2024/01/18 01:49:24;;;;;;;2.85;0.80;;;;;;;;;;5052867;28;20017;-76
2024/01/18 01:51:52;;;;;;;3.67;0.63;;;;;;;;;;5031566;28;20010;-75
2024/01/18 01:54:21;;;;;;;5.75;0.90;;;;;;;;;;5031659;28;20495;-76
2024/01/18 01:56:49;;;;;;;4.20;0.80;;;;;;;;;;5052051;28;20021;-76
2024/01/18 01:59:15;;;;;;;3.55;0.88;;;;;;;;;;5053195;28;20021;-76
2024/01/18 02:01:42;;;;;;;4.20;0.90;;;;;;;;;;5035218;28;20072;-76
2024/01/18 02:04:08;;;;;;;3.78;0.60;;;;;;;;;;5032966;28;20551;-76
2024/01/18 02:06:36;;;;;;;5.38;0.82;;;;;;;;;;5048010;28;20033;-76
2024/01/18 02:09:03;;;;;;;4.72;0.82;;;;;;;;;;5052606;28;20011;-76
2024/01/18 02:11:29;;;;;;;2.17;0.70;;;;;;;;;;5037279;28;20013;-76
2024/01/18 02:13:55;;;;;;;2.15;1.00;;;;;;;;;;5032687;28;20014;-76
2024/01/18 02:16:21;;;;;;;5.53;1.33;;;;;;;;;;5032165;28;20024;-75
2024/01/18 02:18:47;;;;;;;3.55;1.20;;;;;;;;;;5032502;28;20018;-76
2024/01/18 02:21:14;;;;;;;5.25;2.20;;;;;;;;;;5032462;28;20051;-76
2024/01/18 02:23:41;;;;;;;4.38;2.45;;;;;;;;;;5031089;28;20029;-76
2024/01/18 02:26:07;;;;;;;4.55;2.22;;;;;;;;;;5032380;28;20580;-76
2024/01/18 02:28:33;;;;;;;5.13;2.10;;;;;;;;;;5032236;28;20041;-76
2024/01/18 02:30:59;;;;;;;5.57;2.08;;;;;;;;;;5041320;28;20021;-76
2024/01/18 02:33:25;;;;;;;5.38;1.92;;;;;;;;;;5050820;28;20024;-76
2024/01/18 02:35:52;;;;;;;6.30;1.77;;;;;;;;;;5052379;28;20385;-76
2024/01/18 02:38:18;;;;;;;5.18;1.48;;;;;;;;;;5052067;28;20021;-76
2024/01/18 02:40:44;;;;;;;3.17;1.30;;;;;;;;;;5045929;28;20018;-76
2024/01/18 02:43:10;;;;;;;3.63;0.93;;;;;;;;;;5032055;28;20025;-76
2024/01/18 02:45:39;;;;;;;3.55;1.10;;;;;;;;;;5035321;28;20013;-76
2024/01/18 02:48:05;;;;;;;5.03;1.33;;;;;;;;;;5050532;28;20032;-76
2024/01/18 02:50:31;;;;;;;5.80;1.13;;;;;;;;;;5046882;28;20018;-76
2024/01/18 02:52:57;;;;;;;3.92;0.75;;;;;;;;;;5032090;28;20024;-76
2024/01/18 02:55:23;;;;;;;6.47;1.08;;;;;;;;;;5032682;28;20021;-76
2024/01/18 02:57:50;;;;;;;2.78;0.70;;;;;;;;;;5050050;28;20013;-76
2024/01/18 03:00:16;;;;;;;4.82;0.90;;;;;;;;;;5050965;28;20508;-76
2024/01/18 03:02:42;;;;;;;6.10;0.90;;;;;;;;;;5031657;28;20022;-76
2024/01/18 03:05:08;;;;;;;2.10;0.73;;;;;;;;;;5032338;28;20075;-76
2024/01/18 03:07:34;;;;;;;3.38;1.15;;;;;;;;;;5046598;28;20468;-76
2024/01/18 03:10:00;;;;;;;3.25;1.00;;;;;;;;;;5029922;28;20108;-76
2024/01/18 03:12:26;;;;;;;6.65;1.30;;;;;;;;;;5045228;28;20017;-76
2024/01/18 03:14:52;;;;;;;2.47;0.90;;;;;;;;;;5031177;28;20018;-76
2024/01/18 03:17:18;;;;;;;4.45;0.80;;;;;;;;;;5049635;28;20025;-76
2024/01/18 03:19:44;;;;;;;6.25;1.50;;;;;;;;;;5049719;28;20040;-76
2024/01/18 03:22:10;;;;;;;5.20;1.08;;;;;;;;;;5036938;28;20022;-76
2024/01/18 03:24:36;;;;;;;3.50;1.10;;;;;;;;;;5030721;28;20060;-76
2024/01/18 03:27:02;;;;;;;3.88;1.10;;;;;;;;;;5040779;28;20025;-76
2024/01/18 03:29:28;;;;;;;4.13;1.10;;;;;;;;;;5048869;28;20048;-76
2024/01/18 03:31:54;;;;;;;5.90;1.27;;;;;;;;;;5038841;28;20068;-76
2024/01/18 03:34:20;;;;;;;5.95;1.00;;;;;;;;;;5030628;28;20063;-76
2024/01/18 03:36:46;;;;;;;4.93;1.00;;;;;;;;;;5040426;28;20025;-76
2024/01/18 03:39:13;;;;;;;4.38;1.20;;;;;;;;;;5050549;28;20110;-76
2024/01/18 03:41:39;;;;;;;4.43;1.15;;;;;;;;;;5041835;28;20029;-76
2024/01/18 03:44:05;;;;;;;5.22;1.42;;;;;;;;;;5029132;28;20033;-76
2024/01/18 03:46:31;;;;;;;4.18;1.20;;;;;;;;;;5035897;28;20032;-76
2024/01/18 03:48:57;;;;;;;3.53;1.10;;;;;;;;;;5048910;28;20045;-76
2024/01/18 03:51:23;;;;;;;5.78;1.50;;;;;;;;;;5043047;28;20025;-76
2024/01/18 03:53:49;;;;;;;6.75;1.50;;;;;;;;;;5029034;28;20504;-76
2024/01/18 03:56:16;;;;;;;4.45;1.83;;;;;;;;;;5033172;28;20017;-76
2024/01/18 03:58:43;;;;;;;6.30;1.50;;;;;;;;;;5050202;28;20150;-76
2024/01/18 04:01:09;;;;;;;3.45;1.38;;;;;;;;;;5045391;28;20036;-76
2024/01/18 04:03:35;;;;;;;6.95;1.77;;;;;;;;;;5028566;28;20031;-76
2024/01/18 04:06:01;;;;;;;3.50;1.10;;;;;;;;;;5031601;28;20022;-76
2024/01/18 04:08:27;;;;;;;7.75;1.50;;;;;;;;;;5048518;28;20021;-76
2024/01/18 04:10:53;;;;;;;4.95;1.25;;;;;;;;;;5047867;28;20039;-76
2024/01/18 04:13:19;;;;;;;3.35;0.90;;;;;;;;;;5028512;28;20388;-76
2024/01/18 04:15:45;;;;;;;7.22;1.23;;;;;;;;;;5028343;28;20014;-76
2024/01/18 04:18:11;;;;;;;6.07;1.20;;;;;;;;;;5045663;28;20021;-76
2024/01/18 04:20:37;;;;;;;5.65;1.23;;;;;;;;;;5048489;28;20542;-76
2024/01/18 04:23:03;;;;;;;5.93;1.13;;;;;;;;;;5033866;28;20064;-76
2024/01/18 04:25:29;;;;;;;4.22;1.00;;;;;;;;;;5028596;28;20025;-76
2024/01/18 04:27:55;;;;;;;5.10;1.05;;;;;;;;;;5042065;28;20041;-76
2024/01/18 04:30:21;;;;;;;4.18;1.08;;;;;;;;;;5049835;28;20500;-76
2024/01/18 04:32:47;;;;;;;9.07;3.10;;;;;;;;;;5035607;28;20032;-76
2024/01/18 04:35:13;;;;;;;45.10;13.45;;;;;;;;;;5028101;28;20022;-76
2024/01/18 04:37:39;;;;;;;21.15;9.90;;;;;;;;;;5038606;28;20021;-76
2024/01/18 04:40:05;;;;;;;10.98;4.07;;;;;;;;;;5051894;28;20481;-76
2024/01/18 04:42:31;;;;;;;5.35;1.80;;;;;;;;;;5046029;28;20049;-76
2024/01/18 04:44:58;;;;;;;5.45;1.08;;;;;;;;;;5032572;28;20056;-76
2024/01/18 04:47:24;;;;;;;5.38;0.90;;;;;;;;;;5040160;28;20412;-76
2024/01/18 04:49:50;;;;;;;5.85;0.70;;;;;;;;;;5053677;28;20019;-76
2024/01/18 04:52:16;;;;;;;7.05;0.80;;;;;;;;;;5047453;28;20093;-76
2024/01/18 04:54:43;;;;;;;4.88;0.60;;;;;;;;;;5032137;28;20013;-76
2024/01/18 04:57:09;;;;;;;9.55;0.60;;;;;;;;;;5037309;28;20420;-76
2024/01/18 04:59:35;;;;;;;6.93;1.23;;;;;;;;;;5053334;28;20650;-75
2024/01/18 05:02:01;;;;;;;3.83;0.57;;;;;;;;;;5049629;28;20044;-76
2024/01/18 05:04:27;;;;;;;3.60;0.50;;;;;;;;;;5033716;28;20336;-76
2024/01/18 05:06:53;;;;;;;3.60;0.40;;;;;;;;;;5033964;28;20060;-77
2024/01/18 05:09:19;;;;;;;1.30;0.25;;;;;;;;;;5053628;28;20353;-77
2024/01/18 05:11:46;;;;;;;3.58;0.50;;;;;;;;;;5051998;28;20115;-77
2024/01/18 05:14:12;;;;;;;2.90;0.35;;;;;;;;;;5032899;28;20482;-79
2024/01/18 05:16:40;;;;;;;3.90;0.75;;;;;;;;;;5033237;28;20028;-77
2024/01/18 05:19:08;;;;;;;4.43;0.60;;;;;;;;;;5050572;28;20424;-78
2024/01/18 05:21:34;;;;;;;3.95;0.50;;;;;;;;;;5051683;28;20028;-78
2024/01/18 05:24:00;;;;;;;3.85;0.82;;;;;;;;;;5033672;28;20021;-79
2024/01/18 05:26:26;;;;;;;3.97;0.60;;;;;;;;;;5046386;28;20036;-76
2024/01/18 05:28:52;;;;;;;3.45;0.40;;;;;;;;;;5048272;28;20040;-81
2024/01/18 05:31:18;;;;;;;2.65;0.40;;;;;;;;;;5050149;28;20481;-78
2024/01/18 05:33:44;;;;;;;1.08;0.50;;;;;;;;;;5049110;28;20032;-79
2024/01/18 05:36:10;;;;;;;3.60;0.57;;;;;;;;;;5052439;28;20005;-78
2024/01/18 05:38:36;;;;;;;2.88;0.40;;;;;;;;;;5047715;28;20019;-78
2024/01/18 05:41:02;;;;;;;1.90;0.60;;;;;;;;;;5049870;28;20002;-78
2024/01/18 05:43:28;;;;;;;2.90;0.63;;;;;;;;;;5048834;28;20108;-78
2024/01/18 05:45:54;;;;;;;1.38;0.40;;;;;;;;;;5050808;28;20096;-79
2024/01/18 05:48:21;;;;;;;3.70;0.50;;;;;;;;;;5046690;28;20389;-80
2024/01/18 05:50:47;;;;;;;3.03;0.75;;;;;;;;;;5051177;28;20524;-81
2024/01/18 05:53:13;;;;;;;4.00;0.93;;;;;;;;;;5050846;28;20009;-82
2024/01/18 05:55:39;;;;;;;1.85;0.70;;;;;;;;;;5047938;28;20036;-78
2024/01/18 05:58:05;;;;;;;3.58;0.90;;;;;;;;;;5049842;28;20024;-78
2024/01/18 06:00:31;;;;;;;2.88;0.70;;;;;;;;;;5052362;28;20373;-78
2024/01/18 06:02:58;;;;;;;3.97;0.80;;;;;;;;;;5047156;28;20005;-76
2024/01/18 06:05:25;;;;;;;2.42;0.85;;;;;;;;;;5039948;28;20078;-79
2024/01/18 06:07:51;;;;;;;1.95;0.70;;;;;;;;;;5038007;28;20329;-79
2024/01/18 06:10:17;;;;;;;1.33;0.82;;;;;;;;;;5050363;28;20083;-78
2024/01/18 06:12:43;;;;;;;3.25;1.50;;;;;;;;;;5050533;28;20018;-77
2024/01/18 06:15:10;;;;;;;4.80;1.90;;;;;;;;;;5050495;28;20021;-77
2024/01/18 06:17:36;;;;;;;6.97;2.22;;;;;;;;;;5050455;28;20017;-78
2024/01/18 06:20:03;;;;;;;4.40;2.22;;;;;;;;;;5030429;28;20022;-78
2024/01/18 06:22:29;;;;;;;4.53;2.72;;;;;;;;;;5031903;28;20017;-77
2024/01/18 06:24:55;;;;;;;7.10;3.28;;;;;;;;;;5050437;28;20392;-78
2024/01/18 06:27:22;;;;;;;5.70;2.65;;;;;;;;;;5050170;28;20048;-79
2024/01/18 06:29:48;;;;;;;4.43;2.33;;;;;;;;;;5032833;28;20112;-77
2024/01/18 06:32:14;;;;;;;5.72;2.40;;;;;;;;;;5030294;28;20117;-78
2024/01/18 06:34:40;;;;;;;4.72;2.08;;;;;;;;;;5047623;28;20319;-78
2024/01/18 06:37:06;;;;;;;4.10;2.15;;;;;;;;;;5049933;28;20148;-78
2024/01/18 06:39:32;;;;;;;4.18;2.03;;;;;;;;;;5037431;28;20527;-79
2024/01/18 06:41:58;;;;;;;5.88;2.15;;;;;;;;;;5030958;28;20018;-78
2024/01/18 06:44:24;;;;;;;4.03;2.50;;;;;;;;;;5042348;28;20021;-79
2024/01/18 06:46:50;;;;;;;6.30;2.70;;;;;;;;;;5050046;28;20108;-78
2024/01/18 06:49:17;;;;;;;4.85;2.40;;;;;;;;;;5043828;28;20021;-78
2024/01/18 06:51:43;;;;;;;4.88;1.90;;;;;;;;;;5031439;28;20071;-76
2024/01/18 06:54:09;;;;;;;3.33;1.60;;;;;;;;;;5037271;28;20013;-79
2024/01/18 06:56:35;;;;;;;6.88;2.33;;;;;;;;;;5046773;28;20091;-77
2024/01/18 06:59:02;;;;;;;4.88;2.50;;;;;;;;;;5046339;28;20017;-77
2024/01/18 07:01:28;;;;;;;5.32;2.17;;;;;;;;;;5048905;28;20021;-77
2024/01/18 07:03:54;;;;;;;3.55;2.20;;;;;;;;;;5032065;28;20024;-77
2024/01/18 07:06:20;;;;;;;4.80;2.22;;;;;;;;;;5050671;28;20033;-77
2024/01/18 07:08:46;;;;;;;5.82;2.35;;;;;;;;;;5047948;28;20066;-77
2024/01/18 07:11:12;;;;;;;7.25;2.80;;;;;;;;;;5042968;28;20370;-77
2024/01/18 07:13:38;;;;;;;5.32;2.60;;;;;;;;;;5050189;28;20017;-77
2024/01/18 07:16:04;;;;;;;6.68;2.67;;;;;;;;;;5029853;28;20026;-77
2024/01/18 07:18:30;;;;;;;5.05;1.17;;;;;;;;;;5030789;28;20398;-77
2024/01/18 07:20:57;;;;;;;6.47;1.30;;;;;;;;;;5029081;28;20026;-77
2024/01/18 07:23:23;;;;;;;6.18;1.17;;;;;;;;;;5029681;28;20032;-77
2024/01/18 07:25:49;;;;;;;11.65;1.70;;;;;;;;;;5045947;28;20024;-77
2024/01/18 07:28:15;;;;;;;6.50;1.63;;;;;;;;;;5048712;28;20109;-77
2024/01/18 07:30:41;;;;;;;8.80;2.22;;;;;;;;;;5035204;28;20048;-77
2024/01/18 07:33:07;;;;;;;7.20;1.75;;;;;;;;;;5029182;28;20026;-77
2024/01/18 07:35:33;;;;;;;5.10;1.15;;;;;;;;;;5042860;28;20039;-77
2024/01/18 07:37:59;;;;;;;6.07;1.10;;;;;;;;;;5049080;28;20036;-77
2024/01/18 07:40:25;;;;;;;5.50;1.00;;;;;;;;;;5036372;28;20021;-77
2024/01/18 07:42:51;;;;;;;8.45;1.55;;;;;;;;;;5029137;28;20020;-77
2024/01/18 07:45:17;;;;;;;7.63;1.30;;;;;;;;;;5041107;28;20051;-77
2024/01/18 07:47:44;;;;;;;7.35;1.25;;;;;;;;;;5048133;28;20025;-77
2024/01/18 07:50:10;;;;;;;4.88;1.10;;;;;;;;;;5040289;28;20255;-77
2024/01/18 07:52:38;;;;;;;7.32;1.00;;;;;;;;;;5028798;28;20120;-77
2024/01/18 07:55:05;;;;;;;6.80;1.20;;;;;;;;;;5037611;28;20078;-77
2024/01/18 07:57:31;;;;;;;6.30;1.15;;;;;;;;;;5048668;28;20523;-77
2024/01/18 07:59:57;;;;;;;9.50;1.13;;;;;;;;;;5043114;28;20025;-77
2024/01/18 08:02:23;;;;;;;4.68;1.30;;;;;;;;;;5028799;28;20025;-77
2024/01/18 08:04:49;;;;;;;5.95;1.27;;;;;;;;;;5044823;28;20025;-77
2024/01/18 08:07:15;;;;;;;4.00;1.10;;;;;;;;;;5048041;28;20123;-78
2024/01/18 08:09:41;;;;;;;3.63;0.93;;;;;;;;;;5046699;28;20028;-77
2024/01/18 08:12:07;;;;;;;4.28;1.10;;;;;;;;;;5041440;28;20021;-77
2024/01/18 08:14:33;;;;;;;4.90;0.80;;;;;;;;;;5042821;28;20115;-77
2024/01/18 08:16:59;;;;;;;2.97;0.60;;;;;;;;;;5047087;28;20104;-77
2024/01/18 08:19:25;;;;;;;4.43;0.75;;;;;;;;;;5044951;28;20469;-77
2024/01/18 08:21:51;;;;;;;3.78;0.90;;;;;;;;;;5045008;28;20048;-77
2024/01/18 08:24:17;;;;;;;3.65;0.90;;;;;;;;;;5048806;28;20079;-77
2024/01/18 08:26:44;;;;;;;2.30;0.60;;;;;;;;;;5047032;28;20037;-78
2024/01/18 08:29:10;;;;;;;5.28;0.70;;;;;;;;;;5047624;28;20076;-77
2024/01/18 08:31:36;;;;;;;2.45;0.63;;;;;;;;;;5044716;28;20044;-78
2024/01/18 08:34:02;;;;;;;2.40;0.63;;;;;;;;;;5048850;28;20501;-77
2024/01/18 08:36:28;;;;;;;3.55;0.60;;;;;;;;;;5046102;28;20188;-77
2024/01/18 08:38:54;;;;;;;2.78;0.50;;;;;;;;;;5048961;28;20013;-78
2024/01/18 08:41:21;;;;;;;1.05;0.30;;;;;;;;;;5046643;28;20017;-78
2024/01/18 08:43:48;;;;;;;2.53;0.40;;;;;;;;;;5045622;28;20010;-77
2024/01/18 08:46:14;;;;;;;2.70;0.88;;;;;;;;;;5045594;28;20023;-78
2024/01/18 08:48:41;;;;;;;2.55;1.38;;;;;;;;;;5047071;28;20207;-78
2024/01/18 08:51:13;;;;;;;3.17;1.27;;;;;;;;;;5045860;28;20017;-77
2024/01/18 08:53:42;;;;;;;0.85;0.50;;;;;;;;;;5047565;28;20021;-77
2024/01/18 08:56:08;;;;;;;3.38;0.88;;;;;;;;;;5042636;28;20100;-78
2024/01/18 08:58:36;;;;;;;10.90;5.57;;;;;;;;;;5046836;28;20024;-77
2024/01/18 09:01:02;;;;;;;1.60;0.70;;;;;;;;;;5046579;28;20083;-77
2024/01/18 09:03:28;;;;;;;1.25;0.40;;;;;;;;;;5047360;28;20252;-77
2024/01/18 09:05:55;;;;;;;1.13;0.28;;;;;;;;;;5045582;28;20027;-77
2024/01/18 09:08:22;;;;;;;0.70;0.30;;;;;;;;;;5047871;28;20028;-78
2024/01/18 09:10:48;;;;;;;3.25;0.40;;;;;;;;;;5046390;28;20013;-77
2024/01/18 09:13:14;;;;;;;1.45;0.40;;;;;;;;;;5046758;28;20009;-77
2024/01/18 09:15:41;;;;;;;1.42;0.50;;;;;;;;;;5042550;28;20040;-77
2024/01/18 09:18:07;;;;;;;0.52;0.40;;;;;;;;;;5028537;28;20029;-77
2024/01/18 09:20:34;;;;;;;4.45;0.70;;;;;;;;;;5044352;28;20026;-77
2024/01/18 09:23:00;;;;;;;4.00;0.57;;;;;;;;;;5046762;28;20168;-77
2024/01/18 09:25:26;;;;;;;1.95;0.40;;;;;;;;;;5046406;28;20100;-77
2024/01/18 09:27:52;;;;;;;3.22;0.30;;;;;;;;;;5031582;28;20047;-77
2024/01/18 09:30:18;;;;;;;2.05;0.30;;;;;;;;;;5032567;28;20025;-77
2024/01/18 09:32:45;;;;;;;3.47;0.45;;;;;;;;;;5031256;28;20124;-77
2024/01/18 09:35:12;;;;;;;1.95;0.50;;;;;;;;;;5031620;28;20116;-77
2024/01/18 09:37:38;;;;;;;2.55;0.30;;;;;;;;;;5035627;28;20345;-78
2024/01/18 09:40:04;;;;;;;1.70;0.30;;;;;;;;;;5032683;28;20505;-77
2024/01/18 09:42:32;;;;;;;3.03;0.32;;;;;;;;;;5032397;28;20057;-79
2024/01/18 09:45:01;;;;;;;2.05;0.32;;;;;;;;;;5030140;28;20059;-79
2024/01/18 09:47:27;;;;;;;2.03;0.57;;;;;;;;;;5036177;28;20025;-79
2024/01/18 09:49:53;;;;;;;0.95;0.20;;;;;;;;;;5032269;28;20056;-79
2024/01/18 09:52:19;;;;;;;3.03;0.50;;;;;;;;;;5031713;28;20464;-78
2024/01/18 09:54:45;;;;;;;2.42;0.50;;;;;;;;;;5030873;28;20559;-80
2024/01/18 09:57:16;;;;;;;2.28;0.45;;;;;;;;;;5030444;28;20037;-79
2024/01/18 09:59:46;;;;;;;1.55;0.20;;;;;;;;;;5030891;28;20031;-78
2024/01/18 10:02:12;;;;;;;1.05;0.40;;;;;;;;;;5040954;28;20025;-77
2024/01/18 10:04:39;;;;;;;2.63;0.40;;;;;;;;;;5052080;28;20024;-81
2024/01/18 10:07:05;;;;;;;4.07;0.40;;;;;;;;;;5038838;28;20033;-74
2024/01/18 10:09:31;;;;;;;1.23;0.30;;;;;;;;;;5030681;28;20018;-74
2024/01/18 10:11:57;;;;;;;2.08;0.30;;;;;;;;;;5030016;28;20029;-74
2024/01/18 10:14:42;;;;;;;4.93;0.63;;;;;;;;;;5047064;28;20022;-75
2024/01/18 10:17:21;;;;;;;3.45;0.82;;;;;;;;;;5031448;28;20029;-75
2024/01/18 10:19:49;;;;;;;2.67;0.60;;;;;;;;;;5031527;28;20086;-75
2024/01/18 10:22:15;;;;;;;4.30;0.50;;;;;;;;;;5035658;28;20124;-74
2024/01/18 10:24:41;;;;;;;4.22;0.70;;;;;;;;;;5051419;28;20466;-75
2024/01/18 10:27:07;;;;;;;4.93;0.57;;;;;;;;;;5039457;28;20029;-75
2024/01/18 10:29:36;;;;;;;3.28;0.68;;;;;;;;;;5031207;28;20030;-74
2024/01/18 10:32:03;;;;;;;1.95;0.68;;;;;;;;;;5030383;28;20009;-74
2024/01/18 10:34:30;;;;;;;6.00;0.93;;;;;;;;;;5030089;28;20037;-75
2024/01/18 10:36:56;;;;;;;1.52;0.50;;;;;;;;;;5032338;28;20010;-75
2024/01/18 10:39:22;;;;;;;3.25;0.57;;;;;;;;;;5049450;28;20040;-74
2024/01/18 10:41:48;;;;;;;4.80;0.98;;;;;;;;;;5050085;28;20017;-74
2024/01/18 10:44:15;;;;;;;4.45;0.70;;;;;;;;;;5033060;28;20044;-74
2024/01/18 10:46:42;;;;;;;4.82;0.80;;;;;;;;;;5050520;28;20024;-75
2024/01/18 10:49:08;;;;;;;5.70;1.02;;;;;;;;;;5030042;28;20018;-75
2024/01/18 10:51:37;;;;;;;2.38;0.80;;;;;;;;;;5044773;28;20013;-75
2024/01/18 10:54:03;;;;;;;5.95;0.73;;;;;;;;;;5047226;28;20103;-75
2024/01/18 10:56:29;;;;;;;5.47;0.70;;;;;;;;;;5048536;28;20385;-74
2024/01/18 10:58:55;;;;;;;3.60;0.60;;;;;;;;;;5048296;28;20027;-74
2024/01/18 11:01:22;;;;;;;3.00;0.60;;;;;;;;;;5048335;28;20100;-74
2024/01/18 11:03:49;;;;;;;3.00;0.70;;;;;;;;;;5045132;28;20040;-75
2024/01/18 11:06:15;;;;;;;5.43;0.60;;;;;;;;;;5049613;28;20016;-75
2024/01/18 11:08:42;;;;;;;2.38;0.40;;;;;;;;;;5045311;28;20027;-75
2024/01/18 11:11:08;;;;;;;2.60;0.40;;;;;;;;;;5048406;28;20037;-74
2024/01/18 11:13:35;;;;;;;6.45;0.73;;;;;;;;;;5046256;28;20009;-75
2024/01/18 11:16:01;;;;;;;3.78;0.40;;;;;;;;;;5048175;28;20032;-75
2024/01/18 11:18:27;;;;;;;5.25;0.88;;;;;;;;;;5047889;28;20060;-75
2024/01/18 11:20:59;;;;;;;5.15;0.80;;;;;;;;;;5049233;28;20025;-74
2024/01/18 11:23:44;;;;;;;3.75;0.50;;;;;;;;;;5044355;28;20497;-74
2024/01/18 11:26:18;;;;;;;3.05;0.60;;;;;;;;;;5048594;28;20017;-75
2024/01/18 11:28:44;;;;;;;2.63;0.40;;;;;;;;;;5044414;28;20398;-74
2024/01/18 11:31:10;;;;;;;3.00;0.60;;;;;;;;;;5048663;28;20565;-75
2024/01/18 11:33:37;;;;;;;5.45;0.65;;;;;;;;;;5042933;28;20488;-75
2024/01/18 11:36:04;;;;;;;2.40;0.60;;;;;;;;;;5034391;28;20067;-75
2024/01/18 11:38:33;;;;;;;3.50;0.60;;;;;;;;;;5035894;28;20028;-75
2024/01/18 11:41:09;;;;;;;4.13;0.70;;;;;;;;;;5050209;28;20032;-74
2024/01/18 11:43:54;;;;;;;3.03;0.73;;;;;;;;;;5043121;28;20024;-75
2024/01/18 11:46:40;;;;;;;2.92;0.60;;;;;;;;;;5064004;28;20092;-74
2024/01/18 11:49:09;;;;;;;5.60;0.70;;;;;;;;;;5037958;28;20045;-75
2024/01/18 11:51:35;;;;;;;3.63;0.98;;;;;;;;;;5029877;28;20382;-75
2024/01/18 11:54:02;;;;;;;2.40;0.60;;;;;;;;;;5038603;28;20414;-75
2024/01/18 11:56:28;;;;;;;3.35;0.45;;;;;;;;;;5049523;28;20024;-74
2024/01/18 11:58:58;;;;;;;7.22;0.85;;;;;;;;;;5038599;28;20024;-74
2024/01/18 12:01:24;;;;;;;4.28;0.95;;;;;;;;;;5029819;28;20013;-75
2024/01/18 12:03:52;;;;;;;4.13;0.68;;;;;;;;;;5036460;28;20367;-74
2024/01/18 12:06:19;;;;;;;3.53;0.70;;;;;;;;;;5048842;28;20313;-75
2024/01/18 12:08:46;;;;;;;4.22;0.60;;;;;;;;;;5049056;28;20546;-74
2024/01/18 12:11:12;;;;;;;6.13;0.98;;;;;;;;;;5049141;28;20062;-75
2024/01/18 12:13:38;;;;;;;4.60;0.88;;;;;;;;;;5048894;28;20017;-75
2024/01/18 12:16:05;;;;;;;6.07;0.85;;;;;;;;;;5049528;28;20090;-75
2024/01/18 12:18:40;;;;;;;3.85;0.80;;;;;;;;;;5044503;28;20026;-74
2024/01/18 12:21:07;;;;;;;3.47;0.70;;;;;;;;;;5029416;28;20017;-74
2024/01/18 12:23:33;;;;;;;2.78;0.73;;;;;;;;;;5032100;28;20025;-74
2024/01/18 12:25:59;;;;;;;3.22;0.65;;;;;;;;;;5048202;28;20020;-74
2024/01/18 12:28:25;;;;;;;3.38;0.80;;;;;;;;;;5044677;28;20137;-75
2024/01/18 12:30:51;;;;;;;5.20;0.90;;;;;;;;;;5029270;28;20018;-75
2024/01/18 12:33:17;;;;;;;4.13;0.73;;;;;;;;;;5031193;28;20021;-75
2024/01/18 12:35:46;;;;;;;8.57;1.00;;;;;;;;;;5047736;28;20024;-75
2024/01/18 12:38:12;;;;;;;7.22;1.17;;;;;;;;;;5047703;28;20202;-76
2024/01/18 12:40:38;;;;;;;5.07;0.80;;;;;;;;;;5029282;28;20091;-78
2024/01/18 12:43:04;;;;;;;7.80;0.80;;;;;;;;;;5027389;28;20493;-75
2024/01/18 12:45:33;;;;;;;3.97;0.68;;;;;;;;;;5044863;28;20100;-75
2024/01/18 12:48:00;;;;;;;4.20;0.70;;;;;;;;;;5045753;28;20025;-75
2024/01/18 12:50:26;;;;;;;4.78;0.55;;;;;;;;;;5047492;28;20512;-75
2024/01/18 12:52:52;;;;;;;3.28;0.43;;;;;;;;;;5047461;28;20524;-75
2024/01/18 12:55:19;;;;;;;4.78;0.40;;;;;;;;;;5031478;28;20037;-76
2024/01/18 12:57:45;;;;;;;4.75;0.60;;;;;;;;;;5028594;28;20017;-77
2024/01/18 13:00:11;;;;;;;3.88;0.68;;;;;;;;;;5042529;28;20013;-76
2024/01/18 13:02:39;;;;;;;7.95;0.60;;;;;;;;;;5051699;28;20120;-75
2024/01/18 13:05:12;;;;;;;3.42;0.40;;;;;;;;;;5039662;28;20113;-74
2024/01/18 13:07:38;;;;;;;3.90;0.55;;;;;;;;;;5040950;28;20132;-75
2024/01/18 13:10:04;;;;;;;4.57;0.73;;;;;;;;;;5044671;28;20100;-75
2024/01/18 13:12:31;;;;;;;3.53;0.77;;;;;;;;;;5052309;28;20453;-75
2024/01/18 13:14:57;;;;;;;4.13;0.40;;;;;;;;;;5052679;28;20536;-75
2024/01/18 13:17:24;;;;;;;2.80;0.52;;;;;;;;;;5052395;28;20116;-75
2024/01/18 13:19:53;;;;;;;5.93;0.88;;;;;;;;;;5041745;28;20076;-75
2024/01/18 13:22:19;;;;;;;4.15;0.65;;;;;;;;;;5032446;28;20029;-75
2024/01/18 13:24:45;;;;;;;3.38;0.80;;;;;;;;;;5047268;28;20013;-75
2024/01/18 13:27:11;;;;;;;5.32;0.50;;;;;;;;;;5049809;28;20111;-75
2024/01/18 13:29:37;;;;;;;4.28;0.50;;;;;;;;;;5046786;28;20584;-75
2024/01/18 13:32:04;;;;;;;2.83;0.32;;;;;;;;;;5048033;28;20108;-75
2024/01/18 13:34:30;;;;;;;4.32;0.52;;;;;;;;;;5046583;28;20104;-75
2024/01/18 13:36:57;;;;;;;4.45;0.40;;;;;;;;;;5051253;28;20017;-75
2024/01/18 13:39:23;;;;;;;5.68;0.63;;;;;;;;;;5045339;28;20025;-75
2024/01/18 13:41:50;;;;;;;3.58;0.73;;;;;;;;;;5049095;28;20009;-75
2024/01/18 13:44:16;;;;;;;4.47;0.40;;;;;;;;;;5049837;28;20017;-76
2024/01/18 13:46:42;;;;;;;3.53;0.70;;;;;;;;;;5051194;28;20028;-76
2024/01/18 13:49:09;;;;;;;3.60;0.43;;;;;;;;;;5050375;28;20013;-75
2024/01/18 13:51:35;;;;;;;3.80;0.80;;;;;;;;;;5032044;28;20109;-75
2024/01/18 13:54:03;;;;;;;2.70;0.30;;;;;;;;;;5043070;28;20013;-75
2024/01/18 13:56:29;;;;;;;2.97;0.88;;;;;;;;;;5047395;28;20024;-75
2024/01/18 13:58:55;;;;;;;6.95;0.52;;;;;;;;;;5036566;28;20021;-75
2024/01/18 14:01:21;;;;;;;3.05;0.30;;;;;;;;;;5050302;28;20544;-75
2024/01/18 14:03:49;;;;;;;7.43;0.63;;;;;;;;;;5049956;28;20013;-76
2024/01/18 14:06:16;;;;;;;2.10;0.47;;;;;;;;;;5039296;28;20041;-76
2024/01/18 14:08:43;;;;;;;5.65;0.50;;;;;;;;;;5049835;28;20726;-75
2024/01/18 14:11:09;;;;;;;2.50;0.63;;;;;;;;;;5049008;28;20170;-76
2024/01/18 14:13:35;;;;;;;4.85;0.68;;;;;;;;;;5050494;28;20017;-75
2024/01/18 14:16:01;;;;;;;2.28;0.60;;;;;;;;;;5039173;28;20553;-75
2024/01/18 14:18:27;;;;;;;4.75;0.68;;;;;;;;;;5029803;28;20433;-75
2024/01/18 14:20:54;;;;;;;3.28;0.55;;;;;;;;;;5038431;28;20481;-76
2024/01/18 14:23:21;;;;;;;5.63;0.60;;;;;;;;;;5050974;28;20009;-76
2024/01/18 14:25:47;;;;;;;6.68;0.63;;;;;;;;;;5042268;28;20025;-76
2024/01/18 14:28:13;;;;;;;5.10;0.80;;;;;;;;;;5030143;28;20121;-76
2024/01/18 14:30:39;;;;;;;4.38;0.70;;;;;;;;;;5033484;28;20055;-75
2024/01/18 14:33:07;;;;;;;4.72;0.90;;;;;;;;;;5050819;28;20016;-75
2024/01/18 14:35:33;;;;;;;5.88;0.98;;;;;;;;;;5046722;28;20046;-75
2024/01/18 14:37:59;;;;;;;4.75;0.98;;;;;;;;;;5030594;28;20041;-75
2024/01/18 14:40:25;;;;;;;2.08;0.68;;;;;;;;;;5031610;28;20374;-75
2024/01/18 14:42:51;;;;;;;5.55;0.90;;;;;;;;;;5050144;28;20032;-75
2024/01/18 14:45:18;;;;;;;6.35;1.10;;;;;;;;;;5050461;28;20425;-75
2024/01/18 14:47:44;;;;;;;8.02;1.30;;;;;;;;;;5029510;28;20040;-75
2024/01/18 14:50:10;;;;;;;6.13;1.38;;;;;;;;;;5029147;28;20020;-75